sensor_id;sensor_type;location;lat;lon;timestamp;temperature;humidity
11744;DHT22;5929;51.906;7.674;2023-06-10T00:01:19;20.10;90.10
11744;DHT22;5929;51.906;7.674;2023-06-10T00:03:49;20.10;90.20
11744;DHT22;5929;51.906;7.674;2023-06-10T00:06:16;20.10;90.20
11744;DHT22;5929;51.906;7.674;2023-06-10T00:08:42;20.00;90.30
11744;DHT22;5929;51.906;7.674;2023-06-10T00:11:10;20.00;90.40
11744;DHT22;5929;51.906;7.674;2023-06-10T00:13:37;19.90;90.50
11744;DHT22;5929;51.906;7.674;2023-06-10T00:16:04;19.90;90.60
11744;DHT22;5929;51.906;7.674;2023-06-10T00:18:31;19.90;90.60
11744;DHT22;5929;51.906;7.674;2023-06-10T00:20:58;19.80;90.70
11744;DHT22;5929;51.906;7.674;2023-06-10T00:23:29;19.80;90.80
11744;DHT22;5929;51.906;7.674;2023-06-10T00:25:59;19.70;90.90
11744;DHT22;5929;51.906;7.674;2023-06-10T00:28:27;19.70;91.00
11744;DHT22;5929;51.906;7.674;2023-06-10T00:30:54;19.70;91.10
11744;DHT22;5929;51.906;7.674;2023-06-10T00:33:21;19.60;91.20
11744;DHT22;5929;51.906;7.674;2023-06-10T00:35:50;19.60;91.20
11744;DHT22;5929;51.906;7.674;2023-06-10T00:38:17;19.50;91.30
11744;DHT22;5929;51.906;7.674;2023-06-10T00:40:44;19.50;91.40
11744;DHT22;5929;51.906;7.674;2023-06-10T00:43:11;19.50;91.50
11744;DHT22;5929;51.906;7.674;2023-06-10T00:45:39;19.40;91.70
11744;DHT22;5929;51.906;7.674;2023-06-10T00:48:06;19.40;91.70
11744;DHT22;5929;51.906;7.674;2023-06-10T00:50:33;19.30;91.90
11744;DHT22;5929;51.906;7.674;2023-06-10T00:53:00;19.30;92.00
11744;DHT22;5929;51.906;7.674;2023-06-10T00:55:28;19.30;92.10
11744;DHT22;5929;51.906;7.674;2023-06-10T00:57:55;19.30;92.00
11744;DHT22;5929;51.906;7.674;2023-06-10T01:00:22;19.30;92.10
11744;DHT22;5929;51.906;7.674;2023-06-10T01:02:50;19.10;92.30
11744;DHT22;5929;51.906;7.674;2023-06-10T01:05:18;19.10;92.40
11744;DHT22;5929;51.906;7.674;2023-06-10T01:07:50;19.00;92.60
11744;DHT22;5929;51.906;7.674;2023-06-10T01:10:26;18.90;93.10
11744;DHT22;5929;51.906;7.674;2023-06-10T01:12:59;18.90;92.80
11744;DHT22;5929;51.906;7.674;2023-06-10T01:15:29;18.90;92.70
11744;DHT22;5929;51.906;7.674;2023-06-10T01:17:59;18.90;92.90
11744;DHT22;5929;51.906;7.674;2023-06-10T01:20:27;18.90;92.80
11744;DHT22;5929;51.906;7.674;2023-06-10T01:22:56;18.80;93.20
11744;DHT22;5929;51.906;7.674;2023-06-10T01:25:24;18.70;93.10
11744;DHT22;5929;51.906;7.674;2023-06-10T01:27:58;18.70;93.20
11744;DHT22;5929;51.906;7.674;2023-06-10T01:30:32;18.70;93.20
11744;DHT22;5929;51.906;7.674;2023-06-10T01:33:07;18.60;93.30
11744;DHT22;5929;51.906;7.674;2023-06-10T01:35:37;18.60;93.30
11744;DHT22;5929;51.906;7.674;2023-06-10T01:38:06;18.60;93.40
11744;DHT22;5929;51.906;7.674;2023-06-10T01:40:34;18.40;93.50
11744;DHT22;5929;51.906;7.674;2023-06-10T01:43:00;18.30;93.70
11744;DHT22;5929;51.906;7.674;2023-06-10T01:45:28;18.30;93.90
11744;DHT22;5929;51.906;7.674;2023-06-10T01:47:54;18.30;93.90
11744;DHT22;5929;51.906;7.674;2023-06-10T01:50:23;18.40;93.90
11744;DHT22;5929;51.906;7.674;2023-06-10T01:52:50;18.30;94.10
11744;DHT22;5929;51.906;7.674;2023-06-10T01:55:18;18.10;94.10
11744;DHT22;5929;51.906;7.674;2023-06-10T01:57:47;18.10;94.20
11744;DHT22;5929;51.906;7.674;2023-06-10T02:00:15;18.10;94.40
11744;DHT22;5929;51.906;7.674;2023-06-10T02:02:42;18.00;94.30
11744;DHT22;5929;51.906;7.674;2023-06-10T02:05:09;18.00;94.70
11744;DHT22;5929;51.906;7.674;2023-06-10T02:07:36;18.00;94.50
11744;DHT22;5929;51.906;7.674;2023-06-10T02:10:04;18.00;94.60
11744;DHT22;5929;51.906;7.674;2023-06-10T02:12:32;18.00;94.60
11744;DHT22;5929;51.906;7.674;2023-06-10T02:14:59;17.90;94.60
11744;DHT22;5929;51.906;7.674;2023-06-10T02:17:26;17.90;94.80
11744;DHT22;5929;51.906;7.674;2023-06-10T02:19:53;17.90;94.90
11744;DHT22;5929;51.906;7.674;2023-06-10T02:22:20;17.90;95.20
11744;DHT22;5929;51.906;7.674;2023-06-10T02:24:49;17.90;95.00
11744;DHT22;5929;51.906;7.674;2023-06-10T02:27:17;17.90;94.90
11744;DHT22;5929;51.906;7.674;2023-06-10T02:29:46;17.90;95.10
11744;DHT22;5929;51.906;7.674;2023-06-10T02:32:15;17.90;94.90
11744;DHT22;5929;51.906;7.674;2023-06-10T02:34:42;17.90;94.90
11744;DHT22;5929;51.906;7.674;2023-06-10T02:37:09;17.80;94.90
11744;DHT22;5929;51.906;7.674;2023-06-10T02:39:36;17.70;95.10
11744;DHT22;5929;51.906;7.674;2023-06-10T02:42:03;17.70;95.10
11744;DHT22;5929;51.906;7.674;2023-06-10T02:44:31;17.60;95.10
11744;DHT22;5929;51.906;7.674;2023-06-10T02:46:59;17.70;95.30
11744;DHT22;5929;51.906;7.674;2023-06-10T02:49:26;17.70;95.30
11744;DHT22;5929;51.906;7.674;2023-06-10T02:51:53;17.70;95.30
11744;DHT22;5929;51.906;7.674;2023-06-10T02:54:20;17.60;95.50
11744;DHT22;5929;51.906;7.674;2023-06-10T02:56:47;17.60;95.50
11744;DHT22;5929;51.906;7.674;2023-06-10T02:59:14;17.60;95.60
11744;DHT22;5929;51.906;7.674;2023-06-10T03:01:41;17.50;95.60
11744;DHT22;5929;51.906;7.674;2023-06-10T03:04:11;17.60;95.50
11744;DHT22;5929;51.906;7.674;2023-06-10T03:06:40;17.50;95.60
11744;DHT22;5929;51.906;7.674;2023-06-10T03:09:07;17.40;95.70
11744;DHT22;5929;51.906;7.674;2023-06-10T03:11:34;17.40;95.80
11744;DHT22;5929;51.906;7.674;2023-06-10T03:14:01;17.40;95.80
11744;DHT22;5929;51.906;7.674;2023-06-10T03:16:28;17.40;95.90
11744;DHT22;5929;51.906;7.674;2023-06-10T03:18:56;17.30;95.90
11744;DHT22;5929;51.906;7.674;2023-06-10T03:21:25;17.30;95.90
11744;DHT22;5929;51.906;7.674;2023-06-10T03:23:52;17.30;95.80
11744;DHT22;5929;51.906;7.674;2023-06-10T03:26:19;17.30;96.10
11744;DHT22;5929;51.906;7.674;2023-06-10T03:28:47;17.30;96.00
11744;DHT22;5929;51.906;7.674;2023-06-10T03:31:14;17.30;96.40
11744;DHT22;5929;51.906;7.674;2023-06-10T03:33:42;17.20;96.40
11744;DHT22;5929;51.906;7.674;2023-06-10T03:36:09;17.20;96.40
11744;DHT22;5929;51.906;7.674;2023-06-10T03:38:37;17.20;96.30
11744;DHT22;5929;51.906;7.674;2023-06-10T03:41:04;17.20;96.30
11744;DHT22;5929;51.906;7.674;2023-06-10T03:43:31;17.20;96.60
11744;DHT22;5929;51.906;7.674;2023-06-10T03:45:58;17.20;96.60
11744;DHT22;5929;51.906;7.674;2023-06-10T03:48:25;17.30;96.40
11744;DHT22;5929;51.906;7.674;2023-06-10T03:50:51;17.20;96.40
11744;DHT22;5929;51.906;7.674;2023-06-10T03:53:18;17.20;96.60
11744;DHT22;5929;51.906;7.674;2023-06-10T03:55:47;17.20;96.70
11744;DHT22;5929;51.906;7.674;2023-06-10T03:58:13;17.20;96.70
11744;DHT22;5929;51.906;7.674;2023-06-10T04:00:40;17.20;96.80
11744;DHT22;5929;51.906;7.674;2023-06-10T04:03:08;17.10;97.00
11744;DHT22;5929;51.906;7.674;2023-06-10T04:05:40;17.20;97.10
11744;DHT22;5929;51.906;7.674;2023-06-10T04:08:07;17.10;97.20
11744;DHT22;5929;51.906;7.674;2023-06-10T04:10:34;17.10;97.10
11744;DHT22;5929;51.906;7.674;2023-06-10T04:13:02;17.20;97.30
11744;DHT22;5929;51.906;7.674;2023-06-10T04:15:29;17.20;97.20
11744;DHT22;5929;51.906;7.674;2023-06-10T04:17:58;17.20;97.10
11744;DHT22;5929;51.906;7.674;2023-06-10T04:20:25;17.20;97.40
11744;DHT22;5929;51.906;7.674;2023-06-10T04:23:06;17.20;97.20
11744;DHT22;5929;51.906;7.674;2023-06-10T04:25:33;17.30;97.40
11744;DHT22;5929;51.906;7.674;2023-06-10T04:28:01;17.30;97.40
11744;DHT22;5929;51.906;7.674;2023-06-10T04:30:28;17.40;97.40
11744;DHT22;5929;51.906;7.674;2023-06-10T04:32:56;17.20;97.10
11744;DHT22;5929;51.906;7.674;2023-06-10T04:35:23;17.30;97.30
11744;DHT22;5929;51.906;7.674;2023-06-10T04:37:55;17.40;97.20
11744;DHT22;5929;51.906;7.674;2023-06-10T04:40:22;17.40;97.00
11744;DHT22;5929;51.906;7.674;2023-06-10T04:42:48;17.40;97.10
11744;DHT22;5929;51.906;7.674;2023-06-10T04:45:17;17.40;97.10
11744;DHT22;5929;51.906;7.674;2023-06-10T04:47:46;17.40;96.80
11744;DHT22;5929;51.906;7.674;2023-06-10T04:50:13;17.40;96.90
11744;DHT22;5929;51.906;7.674;2023-06-10T04:52:41;17.50;97.00
11744;DHT22;5929;51.906;7.674;2023-06-10T04:55:10;17.60;96.90
11744;DHT22;5929;51.906;7.674;2023-06-10T04:57:37;17.70;96.60
11744;DHT22;5929;51.906;7.674;2023-06-10T05:00:04;17.70;96.30
11744;DHT22;5929;51.906;7.674;2023-06-10T05:02:35;17.80;96.20
11744;DHT22;5929;51.906;7.674;2023-06-10T05:05:02;17.80;96.20
11744;DHT22;5929;51.906;7.674;2023-06-10T05:07:29;17.80;96.00
11744;DHT22;5929;51.906;7.674;2023-06-10T05:09:56;17.90;96.30
11744;DHT22;5929;51.906;7.674;2023-06-10T05:12:22;18.00;96.50
11744;DHT22;5929;51.906;7.674;2023-06-10T05:14:50;18.10;96.10
11744;DHT22;5929;51.906;7.674;2023-06-10T05:17:17;18.20;95.70
11744;DHT22;5929;51.906;7.674;2023-06-10T05:19:47;18.20;95.50
11744;DHT22;5929;51.906;7.674;2023-06-10T05:22:14;18.30;95.20
11744;DHT22;5929;51.906;7.674;2023-06-10T05:24:41;18.40;95.50
11744;DHT22;5929;51.906;7.674;2023-06-10T05:27:09;18.40;95.10
11744;DHT22;5929;51.906;7.674;2023-06-10T05:29:36;18.50;95.00
11744;DHT22;5929;51.906;7.674;2023-06-10T05:32:03;18.60;94.80
11744;DHT22;5929;51.906;7.674;2023-06-10T05:34:30;18.60;94.50
11744;DHT22;5929;51.906;7.674;2023-06-10T05:36:58;18.60;94.30
11744;DHT22;5929;51.906;7.674;2023-06-10T05:39:25;18.60;94.20
11744;DHT22;5929;51.906;7.674;2023-06-10T05:41:52;18.70;94.00
11744;DHT22;5929;51.906;7.674;2023-06-10T05:44:18;18.80;94.00
11744;DHT22;5929;51.906;7.674;2023-06-10T05:46:46;18.80;94.00
11744;DHT22;5929;51.906;7.674;2023-06-10T05:49:12;18.80;93.80
11744;DHT22;5929;51.906;7.674;2023-06-10T05:51:39;18.90;94.00
11744;DHT22;5929;51.906;7.674;2023-06-10T05:54:07;18.90;93.90
11744;DHT22;5929;51.906;7.674;2023-06-10T05:56:34;19.00;93.60
11744;DHT22;5929;51.906;7.674;2023-06-10T05:59:01;19.00;93.70
11744;DHT22;5929;51.906;7.674;2023-06-10T06:01:28;19.10;93.70
11744;DHT22;5929;51.906;7.674;2023-06-10T06:03:54;19.10;93.80
11744;DHT22;5929;51.906;7.674;2023-06-10T06:06:21;19.20;93.30
11744;DHT22;5929;51.906;7.674;2023-06-10T06:08:49;19.30;93.30
11744;DHT22;5929;51.906;7.674;2023-06-10T06:11:17;19.30;93.50
11744;DHT22;5929;51.906;7.674;2023-06-10T06:13:44;19.30;93.70
11744;DHT22;5929;51.906;7.674;2023-06-10T06:16:10;19.30;93.70
11744;DHT22;5929;51.906;7.674;2023-06-10T06:18:37;19.40;92.40
11744;DHT22;5929;51.906;7.674;2023-06-10T06:21:04;19.50;92.30
11744;DHT22;5929;51.906;7.674;2023-06-10T06:23:31;19.50;92.20
11744;DHT22;5929;51.906;7.674;2023-06-10T06:25:58;19.60;92.30
11744;DHT22;5929;51.906;7.674;2023-06-10T06:28:26;19.60;92.30
11744;DHT22;5929;51.906;7.674;2023-06-10T06:30:54;19.70;91.90
11744;DHT22;5929;51.906;7.674;2023-06-10T06:33:21;19.70;91.90
11744;DHT22;5929;51.906;7.674;2023-06-10T06:35:48;19.80;91.80
11744;DHT22;5929;51.906;7.674;2023-06-10T06:38:15;19.80;92.10
11744;DHT22;5929;51.906;7.674;2023-06-10T06:40:42;19.90;91.80
11744;DHT22;5929;51.906;7.674;2023-06-10T06:43:09;19.90;91.80
11744;DHT22;5929;51.906;7.674;2023-06-10T06:45:37;19.90;91.70
11744;DHT22;5929;51.906;7.674;2023-06-10T06:48:05;19.90;91.20
11744;DHT22;5929;51.906;7.674;2023-06-10T06:50:34;20.00;90.90
11744;DHT22;5929;51.906;7.674;2023-06-10T06:53:01;20.10;90.60
11744;DHT22;5929;51.906;7.674;2023-06-10T06:55:27;20.10;90.60
11744;DHT22;5929;51.906;7.674;2023-06-10T06:57:54;20.10;90.40
11744;DHT22;5929;51.906;7.674;2023-06-10T07:00:21;20.10;90.70
11744;DHT22;5929;51.906;7.674;2023-06-10T07:02:50;20.20;90.30
11744;DHT22;5929;51.906;7.674;2023-06-10T07:05:17;20.30;90.10
11744;DHT22;5929;51.906;7.674;2023-06-10T07:07:44;20.40;89.90
11744;DHT22;5929;51.906;7.674;2023-06-10T07:10:11;20.40;90.10
11744;DHT22;5929;51.906;7.674;2023-06-10T07:12:38;20.50;90.00
11744;DHT22;5929;51.906;7.674;2023-06-10T07:15:06;20.50;88.50
11744;DHT22;5929;51.906;7.674;2023-06-10T07:17:33;20.60;87.50
11744;DHT22;5929;51.906;7.674;2023-06-10T07:20:02;20.50;88.90
11744;DHT22;5929;51.906;7.674;2023-06-10T07:22:29;20.60;88.60
11744;DHT22;5929;51.906;7.674;2023-06-10T07:24:56;20.60;87.80
11744;DHT22;5929;51.906;7.674;2023-06-10T07:27:25;20.70;88.30
11744;DHT22;5929;51.906;7.674;2023-06-10T07:29:52;20.80;88.50
11744;DHT22;5929;51.906;7.674;2023-06-10T07:32:19;20.80;86.40
11744;DHT22;5929;51.906;7.674;2023-06-10T07:34:47;20.90;86.10
11744;DHT22;5929;51.906;7.674;2023-06-10T07:37:15;20.90;86.60
11744;DHT22;5929;51.906;7.674;2023-06-10T07:39:42;21.00;84.30
11744;DHT22;5929;51.906;7.674;2023-06-10T07:42:10;21.10;84.70
11744;DHT22;5929;51.906;7.674;2023-06-10T07:44:37;21.20;85.30
11744;DHT22;5929;51.906;7.674;2023-06-10T07:47:04;21.20;83.50
11744;DHT22;5929;51.906;7.674;2023-06-10T07:49:31;21.30;84.60
11744;DHT22;5929;51.906;7.674;2023-06-10T07:51:57;21.30;84.10
11744;DHT22;5929;51.906;7.674;2023-06-10T07:54:26;21.40;83.30
11744;DHT22;5929;51.906;7.674;2023-06-10T07:56:53;21.50;83.00
11744;DHT22;5929;51.906;7.674;2023-06-10T07:59:20;21.60;82.60
11744;DHT22;5929;51.906;7.674;2023-06-10T08:01:46;21.70;83.20
11744;DHT22;5929;51.906;7.674;2023-06-10T08:04:13;21.70;83.50
11744;DHT22;5929;51.906;7.674;2023-06-10T08:06:40;21.70;85.40
11744;DHT22;5929;51.906;7.674;2023-06-10T08:09:07;21.90;84.10
11744;DHT22;5929;51.906;7.674;2023-06-10T08:11:35;22.00;83.00
11744;DHT22;5929;51.906;7.674;2023-06-10T08:14:02;22.10;81.10
11744;DHT22;5929;51.906;7.674;2023-06-10T08:16:28;22.10;81.20
11744;DHT22;5929;51.906;7.674;2023-06-10T08:18:55;22.20;80.10
11744;DHT22;5929;51.906;7.674;2023-06-10T08:21:22;22.20;80.40
11744;DHT22;5929;51.906;7.674;2023-06-10T08:23:52;22.20;80.60
11744;DHT22;5929;51.906;7.674;2023-06-10T08:26:19;22.30;80.80
11744;DHT22;5929;51.906;7.674;2023-06-10T08:28:47;22.40;80.60
11744;DHT22;5929;51.906;7.674;2023-06-10T08:31:14;22.50;80.50
11744;DHT22;5929;51.906;7.674;2023-06-10T08:33:42;22.50;80.30
11744;DHT22;5929;51.906;7.674;2023-06-10T08:36:09;22.60;82.50
11744;DHT22;5929;51.906;7.674;2023-06-10T08:38:35;22.60;82.70
11744;DHT22;5929;51.906;7.674;2023-06-10T08:41:04;22.80;82.10
11744;DHT22;5929;51.906;7.674;2023-06-10T08:43:34;22.90;80.20
11744;DHT22;5929;51.906;7.674;2023-06-10T08:46:08;23.00;79.80
11744;DHT22;5929;51.906;7.674;2023-06-10T08:48:39;23.10;79.90
11744;DHT22;5929;51.906;7.674;2023-06-10T08:51:10;23.20;79.50
11744;DHT22;5929;51.906;7.674;2023-06-10T08:53:38;23.30;78.70
11744;DHT22;5929;51.906;7.674;2023-06-10T08:56:09;23.40;77.70
11744;DHT22;5929;51.906;7.674;2023-06-10T08:58:37;23.40;77.40
11744;DHT22;5929;51.906;7.674;2023-06-10T09:01:08;23.40;76.90
11744;DHT22;5929;51.906;7.674;2023-06-10T09:03:37;23.40;77.60
11744;DHT22;5929;51.906;7.674;2023-06-10T09:06:05;23.50;78.00
11744;DHT22;5929;51.906;7.674;2023-06-10T09:08:33;23.60;76.70
11744;DHT22;5929;51.906;7.674;2023-06-10T09:11:01;23.60;77.80
11744;DHT22;5929;51.906;7.674;2023-06-10T09:13:28;23.70;77.80
11744;DHT22;5929;51.906;7.674;2023-06-10T09:15:55;23.70;76.30
11744;DHT22;5929;51.906;7.674;2023-06-10T09:18:27;23.80;76.20
11744;DHT22;5929;51.906;7.674;2023-06-10T09:20:54;23.90;75.60
11744;DHT22;5929;51.906;7.674;2023-06-10T09:23:21;23.90;76.30
11744;DHT22;5929;51.906;7.674;2023-06-10T09:25:56;24.00;75.50
11744;DHT22;5929;51.906;7.674;2023-06-10T09:28:23;24.10;75.50
11744;DHT22;5929;51.906;7.674;2023-06-10T09:30:50;24.30;75.20
11744;DHT22;5929;51.906;7.674;2023-06-10T09:33:29;24.30;74.20
11744;DHT22;5929;51.906;7.674;2023-06-10T09:35:55;24.40;75.60
11744;DHT22;5929;51.906;7.674;2023-06-10T09:38:33;24.40;76.90
11744;DHT22;5929;51.906;7.674;2023-06-10T09:41:00;24.60;76.50
11744;DHT22;5929;51.906;7.674;2023-06-10T09:43:39;24.70;76.30
11744;DHT22;5929;51.906;7.674;2023-06-10T09:46:07;24.70;76.30
11744;DHT22;5929;51.906;7.674;2023-06-10T09:48:41;24.80;76.60
11744;DHT22;5929;51.906;7.674;2023-06-10T09:51:12;24.90;75.30
11744;DHT22;5929;51.906;7.674;2023-06-10T09:53:39;25.00;75.20
11744;DHT22;5929;51.906;7.674;2023-06-10T09:56:06;25.10;75.30
11744;DHT22;5929;51.906;7.674;2023-06-10T09:58:36;25.10;76.00
11744;DHT22;5929;51.906;7.674;2023-06-10T10:01:07;25.30;75.80
11744;DHT22;5929;51.906;7.674;2023-06-10T10:03:43;25.40;76.10
11744;DHT22;5929;51.906;7.674;2023-06-10T10:06:11;25.40;75.40
11744;DHT22;5929;51.906;7.674;2023-06-10T10:08:40;25.50;74.90
11744;DHT22;5929;51.906;7.674;2023-06-10T10:11:06;25.60;75.40
11744;DHT22;5929;51.906;7.674;2023-06-10T10:13:34;25.60;75.20
11744;DHT22;5929;51.906;7.674;2023-06-10T10:16:03;25.60;74.40
11744;DHT22;5929;51.906;7.674;2023-06-10T10:18:31;25.80;76.30
11744;DHT22;5929;51.906;7.674;2023-06-10T10:21:05;25.90;75.00
11744;DHT22;5929;51.906;7.674;2023-06-10T10:23:38;25.90;73.30
11744;DHT22;5929;51.906;7.674;2023-06-10T10:26:10;25.90;73.00
11744;DHT22;5929;51.906;7.674;2023-06-10T10:28:42;26.00;72.90
11744;DHT22;5929;51.906;7.674;2023-06-10T10:31:16;26.00;73.00
11744;DHT22;5929;51.906;7.674;2023-06-10T10:33:51;26.20;74.60
11744;DHT22;5929;51.906;7.674;2023-06-10T10:36:23;26.30;73.30
11744;DHT22;5929;51.906;7.674;2023-06-10T10:38:50;26.60;73.10
11744;DHT22;5929;51.906;7.674;2023-06-10T10:41:20;26.50;71.70
11744;DHT22;5929;51.906;7.674;2023-06-10T10:43:48;26.80;72.00
11744;DHT22;5929;51.906;7.674;2023-06-10T10:46:17;26.90;72.20
11744;DHT22;5929;51.906;7.674;2023-06-10T10:48:44;27.00;72.50
11744;DHT22;5929;51.906;7.674;2023-06-10T10:51:12;27.30;72.90
11744;DHT22;5929;51.906;7.674;2023-06-10T10:53:43;27.30;70.90
11744;DHT22;5929;51.906;7.674;2023-06-10T10:56:13;27.30;71.60
11744;DHT22;5929;51.906;7.674;2023-06-10T10:58:40;27.40;71.80
11744;DHT22;5929;51.906;7.674;2023-06-10T11:01:11;27.60;71.00
11744;DHT22;5929;51.906;7.674;2023-06-10T11:03:44;27.70;70.40
11744;DHT22;5929;51.906;7.674;2023-06-10T11:06:13;27.70;69.70
11744;DHT22;5929;51.906;7.674;2023-06-10T11:08:49;27.90;70.20
11744;DHT22;5929;51.906;7.674;2023-06-10T11:11:21;28.20;70.80
11744;DHT22;5929;51.906;7.674;2023-06-10T11:14:07;28.60;69.90
11744;DHT22;5929;51.906;7.674;2023-06-10T11:16:39;28.70;68.50
11744;DHT22;5929;51.906;7.674;2023-06-10T11:19:07;28.80;68.70
11744;DHT22;5929;51.906;7.674;2023-06-10T11:21:45;29.30;68.80
11744;DHT22;5929;51.906;7.674;2023-06-10T11:24:25;29.70;67.10
11744;DHT22;5929;51.906;7.674;2023-06-10T11:26:52;30.10;67.70
11744;DHT22;5929;51.906;7.674;2023-06-10T11:29:19;31.00;66.40
11744;DHT22;5929;51.906;7.674;2023-06-10T11:31:49;31.70;65.00
11744;DHT22;5929;51.906;7.674;2023-06-10T11:34:21;32.10;64.60
11744;DHT22;5929;51.906;7.674;2023-06-10T11:36:51;32.00;63.40
11744;DHT22;5929;51.906;7.674;2023-06-10T11:39:21;31.80;64.40
11744;DHT22;5929;51.906;7.674;2023-06-10T11:41:55;31.90;62.90
11744;DHT22;5929;51.906;7.674;2023-06-10T11:44:27;31.80;62.20
11744;DHT22;5929;51.906;7.674;2023-06-10T11:46:56;31.70;63.40
11744;DHT22;5929;51.906;7.674;2023-06-10T11:49:23;31.50;63.30
11744;DHT22;5929;51.906;7.674;2023-06-10T11:51:50;31.40;62.50
11744;DHT22;5929;51.906;7.674;2023-06-10T11:54:18;31.60;62.70
11744;DHT22;5929;51.906;7.674;2023-06-10T11:56:45;31.60;62.30
11744;DHT22;5929;51.906;7.674;2023-06-10T11:59:14;31.50;63.20
11744;DHT22;5929;51.906;7.674;2023-06-10T12:01:42;31.70;62.40
11744;DHT22;5929;51.906;7.674;2023-06-10T12:04:11;32.00;62.60
11744;DHT22;5929;51.906;7.674;2023-06-10T12:06:39;32.60;61.50
11744;DHT22;5929;51.906;7.674;2023-06-10T12:09:06;32.40;59.90
11744;DHT22;5929;51.906;7.674;2023-06-10T12:11:36;32.40;60.90
11744;DHT22;5929;51.906;7.674;2023-06-10T12:14:03;32.10;60.80
11744;DHT22;5929;51.906;7.674;2023-06-10T12:16:31;32.50;60.00
11744;DHT22;5929;51.906;7.674;2023-06-10T12:19:02;32.60;60.70
11744;DHT22;5929;51.906;7.674;2023-06-10T12:21:30;32.60;60.40
11744;DHT22;5929;51.906;7.674;2023-06-10T12:24:05;32.80;59.80
11744;DHT22;5929;51.906;7.674;2023-06-10T12:26:42;33.10;59.50
11744;DHT22;5929;51.906;7.674;2023-06-10T12:29:16;33.70;59.10
11744;DHT22;5929;51.906;7.674;2023-06-10T12:31:56;33.60;58.60
11744;DHT22;5929;51.906;7.674;2023-06-10T12:34:34;33.70;58.50
11744;DHT22;5929;51.906;7.674;2023-06-10T12:37:02;33.90;56.90
11744;DHT22;5929;51.906;7.674;2023-06-10T12:39:33;33.70;57.40
11744;DHT22;5929;51.906;7.674;2023-06-10T12:42:01;33.40;58.80
11744;DHT22;5929;51.906;7.674;2023-06-10T12:44:32;33.60;58.80
11744;DHT22;5929;51.906;7.674;2023-06-10T12:47:06;33.80;57.70
11744;DHT22;5929;51.906;7.674;2023-06-10T12:49:33;33.00;57.60
11744;DHT22;5929;51.906;7.674;2023-06-10T12:52:00;33.40;58.20
11744;DHT22;5929;51.906;7.674;2023-06-10T12:54:27;34.00;57.80
11744;DHT22;5929;51.906;7.674;2023-06-10T12:56:54;34.30;57.40
11744;DHT22;5929;51.906;7.674;2023-06-10T12:59:21;34.40;56.70
11744;DHT22;5929;51.906;7.674;2023-06-10T13:01:50;34.90;56.20
11744;DHT22;5929;51.906;7.674;2023-06-10T13:04:19;34.60;56.40
11744;DHT22;5929;51.906;7.674;2023-06-10T13:06:47;34.60;56.00
11744;DHT22;5929;51.906;7.674;2023-06-10T13:09:14;34.00;56.20
11744;DHT22;5929;51.906;7.674;2023-06-10T13:11:42;33.30;56.20
11744;DHT22;5929;51.906;7.674;2023-06-10T13:14:10;34.00;57.60
11744;DHT22;5929;51.906;7.674;2023-06-10T13:16:36;34.40;57.10
11744;DHT22;5929;51.906;7.674;2023-06-10T13:19:05;34.50;56.70
11744;DHT22;5929;51.906;7.674;2023-06-10T13:21:33;34.60;56.20
11744;DHT22;5929;51.906;7.674;2023-06-10T13:24:00;34.80;56.40
11744;DHT22;5929;51.906;7.674;2023-06-10T13:26:27;34.90;55.40
11744;DHT22;5929;51.906;7.674;2023-06-10T13:28:56;34.50;55.20
11744;DHT22;5929;51.906;7.674;2023-06-10T13:31:23;33.60;55.90
11744;DHT22;5929;51.906;7.674;2023-06-10T13:33:50;33.10;58.40
11744;DHT22;5929;51.906;7.674;2023-06-10T13:36:17;33.10;57.50
11744;DHT22;5929;51.906;7.674;2023-06-10T13:38:45;33.20;57.50
11744;DHT22;5929;51.906;7.674;2023-06-10T13:41:13;32.50;57.20
11744;DHT22;5929;51.906;7.674;2023-06-10T13:43:40;32.70;58.30
11744;DHT22;5929;51.906;7.674;2023-06-10T13:46:06;33.10;58.00
11744;DHT22;5929;51.906;7.674;2023-06-10T13:48:33;33.40;57.90
11744;DHT22;5929;51.906;7.674;2023-06-10T13:51:00;33.30;57.10
11744;DHT22;5929;51.906;7.674;2023-06-10T13:53:27;32.80;58.10
11744;DHT22;5929;51.906;7.674;2023-06-10T13:55:55;33.20;58.60
11744;DHT22;5929;51.906;7.674;2023-06-10T13:58:22;33.90;57.60
11744;DHT22;5929;51.906;7.674;2023-06-10T14:00:49;34.10;56.30
11744;DHT22;5929;51.906;7.674;2023-06-10T14:03:19;33.80;57.90
11744;DHT22;5929;51.906;7.674;2023-06-10T14:05:46;33.80;56.60
11744;DHT22;5929;51.906;7.674;2023-06-10T14:08:12;33.90;57.40
11744;DHT22;5929;51.906;7.674;2023-06-10T14:10:39;34.00;57.50
11744;DHT22;5929;51.906;7.674;2023-06-10T14:13:10;34.00;56.60
11744;DHT22;5929;51.906;7.674;2023-06-10T14:15:37;34.10;56.70
11744;DHT22;5929;51.906;7.674;2023-06-10T14:18:04;34.70;56.50
11744;DHT22;5929;51.906;7.674;2023-06-10T14:20:31;34.40;56.60
11744;DHT22;5929;51.906;7.674;2023-06-10T14:22:58;34.70;56.50
11744;DHT22;5929;51.906;7.674;2023-06-10T14:25:25;34.80;55.80
11744;DHT22;5929;51.906;7.674;2023-06-10T14:27:51;34.80;55.50
11744;DHT22;5929;51.906;7.674;2023-06-10T14:30:20;34.40;55.80
11744;DHT22;5929;51.906;7.674;2023-06-10T14:32:46;34.20;56.40
11744;DHT22;5929;51.906;7.674;2023-06-10T14:35:13;33.90;56.90
11744;DHT22;5929;51.906;7.674;2023-06-10T14:37:40;34.10;56.10
11744;DHT22;5929;51.906;7.674;2023-06-10T14:40:08;34.10;55.70
11744;DHT22;5929;51.906;7.674;2023-06-10T14:42:35;34.40;54.60
11744;DHT22;5929;51.906;7.674;2023-06-10T14:45:02;34.50;55.10
11744;DHT22;5929;51.906;7.674;2023-06-10T14:47:31;34.40;54.80
11744;DHT22;5929;51.906;7.674;2023-06-10T14:49:58;34.60;55.00
11744;DHT22;5929;51.906;7.674;2023-06-10T14:52:24;34.30;55.90
11744;DHT22;5929;51.906;7.674;2023-06-10T14:54:51;34.10;55.00
11744;DHT22;5929;51.906;7.674;2023-06-10T14:57:20;33.70;55.70
11744;DHT22;5929;51.906;7.674;2023-06-10T14:59:47;33.70;55.70
11744;DHT22;5929;51.906;7.674;2023-06-10T15:02:14;33.60;56.10
11744;DHT22;5929;51.906;7.674;2023-06-10T15:04:42;33.60;54.90
11744;DHT22;5929;51.906;7.674;2023-06-10T15:07:09;33.10;55.30
11744;DHT22;5929;51.906;7.674;2023-06-10T15:09:36;33.10;55.40
11744;DHT22;5929;51.906;7.674;2023-06-10T15:12:03;33.10;56.60
11744;DHT22;5929;51.906;7.674;2023-06-10T15:14:31;32.80;56.60
11744;DHT22;5929;51.906;7.674;2023-06-10T15:16:57;33.20;57.50
11744;DHT22;5929;51.906;7.674;2023-06-10T15:19:24;32.80;57.30
11744;DHT22;5929;51.906;7.674;2023-06-10T15:21:53;33.40;57.50
11744;DHT22;5929;51.906;7.674;2023-06-10T15:24:20;33.30;57.40
11744;DHT22;5929;51.906;7.674;2023-06-10T15:26:47;33.10;56.80
11744;DHT22;5929;51.906;7.674;2023-06-10T15:29:13;33.00;56.40
11744;DHT22;5929;51.906;7.674;2023-06-10T15:31:40;33.60;56.70
11744;DHT22;5929;51.906;7.674;2023-06-10T15:34:07;33.20;56.80
11744;DHT22;5929;51.906;7.674;2023-06-10T15:36:34;33.30;56.60
11744;DHT22;5929;51.906;7.674;2023-06-10T15:39:05;33.20;55.90
11744;DHT22;5929;51.906;7.674;2023-06-10T15:41:32;33.30;56.60
11744;DHT22;5929;51.906;7.674;2023-06-10T15:43:59;33.40;57.00
11744;DHT22;5929;51.906;7.674;2023-06-10T15:46:26;33.90;56.30
11744;DHT22;5929;51.906;7.674;2023-06-10T15:48:53;33.70;56.20
11744;DHT22;5929;51.906;7.674;2023-06-10T15:51:20;34.10;55.90